createdAt,value
2022-09-12T00:02:17.315Z,82.85
2022-09-12T00:04:44.219Z,82.25
2022-09-12T00:07:11.051Z,82.48
2022-09-12T00:09:38.029Z,82.45
2022-09-12T00:12:05.490Z,81.35
2022-09-12T00:14:32.339Z,81.28
2022-09-12T00:17:00.049Z,82.17
2022-09-12T00:19:27.896Z,82.56
2022-09-12T00:21:55.551Z,82.54
2022-09-12T00:24:23.421Z,82.78
2022-09-12T00:26:50.321Z,82.42
2022-09-12T00:29:22.647Z,82.05
2022-09-12T00:31:49.667Z,82.09
2022-09-12T00:34:16.615Z,82.40
2022-09-12T00:36:43.453Z,81.75
2022-09-12T00:39:16.793Z,82.09
2022-09-12T00:41:44.569Z,82.14
2022-09-12T00:44:23.187Z,82.47
2022-09-12T00:47:15.613Z,82.51
2022-09-12T00:49:55.674Z,82.83
2022-09-12T00:52:36.207Z,83.39
2022-09-12T00:55:15.990Z,82.46
2022-09-12T00:58:01.182Z,82.72
2022-09-12T01:00:28.589Z,82.56
2022-09-12T01:03:03.805Z,83.96
2022-09-12T01:05:34.887Z,83.54
2022-09-12T01:08:04.514Z,83.47
2022-09-12T01:10:34.964Z,83.79
2022-09-12T01:13:05.583Z,84.73
2022-09-12T01:15:32.756Z,83.72
2022-09-12T01:18:48.868Z,83.80
2022-09-12T01:21:28.603Z,86.37
2022-09-12T01:24:26.170Z,84.26
2022-09-12T01:27:47.844Z,83.87
2022-09-12T01:30:48.231Z,83.27
2022-09-12T01:33:51.328Z,83.68
2022-09-12T01:36:52.786Z,83.28
2022-09-12T01:39:28.019Z,82.08
2022-09-12T01:42:19.403Z,82.01
2022-09-12T01:45:32.355Z,81.34
2022-09-12T01:48:04.861Z,81.58
2022-09-12T01:50:40.245Z,80.63
2022-09-12T01:53:23.772Z,79.90
2022-09-12T01:56:10.731Z,80.11
2022-09-12T01:58:50.605Z,80.30
2022-09-12T02:01:32.031Z,80.13
2022-09-12T02:04:16.684Z,79.89
2022-09-12T02:07:03.099Z,79.51
2022-09-12T02:09:47.049Z,79.83
2022-09-12T02:12:19.201Z,79.89
2022-09-12T02:14:53.630Z,79.30
2022-09-12T02:17:23.618Z,79.43
2022-09-12T02:20:03.755Z,78.72
2022-09-12T02:22:33.916Z,78.27
2022-09-12T02:25:02.860Z,78.89
2022-09-12T02:27:45.679Z,79.70
2022-09-12T02:30:16.392Z,80.03
2022-09-12T02:33:07.559Z,80.26
2022-09-12T02:35:47.219Z,80.18
2022-09-12T02:38:38.177Z,80.12
2022-09-12T02:41:05.287Z,80.53
2022-09-12T02:43:32.164Z,80.73
2022-09-12T02:45:59.237Z,80.72
2022-09-12T02:48:31.914Z,81.44
2022-09-12T02:50:58.854Z,81.93
2022-09-12T02:53:26.364Z,82.01
2022-09-12T02:55:53.717Z,81.32
2022-09-12T02:58:27.512Z,81.02
2022-09-12T03:01:43.530Z,80.57
2022-09-12T03:04:49.230Z,80.27
2022-09-12T03:08:13.052Z,80.41
2022-09-12T03:11:08.570Z,80.19
2022-09-12T03:14:02.344Z,81.07
2022-09-12T03:17:18.111Z,80.92
2022-09-12T03:20:35.035Z,80.57
2022-09-12T03:23:19.619Z,80.69
2022-09-12T03:26:01.528Z,81.14
2022-09-12T03:28:29.402Z,82.15
2022-09-12T03:30:56.678Z,83.08
2022-09-12T03:33:25.963Z,82.77
2022-09-12T03:35:54.803Z,81.91
2022-09-12T03:38:21.696Z,81.83
2022-09-12T03:40:52.701Z,81.73
2022-09-12T03:43:21.705Z,82.06
2022-09-12T03:45:54.498Z,82.45
2022-09-12T03:48:21.467Z,81.66
2022-09-12T03:50:48.374Z,82.07
2022-09-12T03:53:17.211Z,82.31
2022-09-12T03:55:44.767Z,82.89
2022-09-12T03:58:11.574Z,83.86
2022-09-12T04:00:39.193Z,83.71
2022-09-12T04:03:06.016Z,82.57
2022-09-12T04:05:32.903Z,83.28
2022-09-12T04:07:59.698Z,83.45
2022-09-12T04:10:26.600Z,82.40
2022-09-12T04:12:53.424Z,81.50
2022-09-12T04:15:20.530Z,81.65
2022-09-12T04:17:47.321Z,81.29
2022-09-12T04:20:14.138Z,80.92
2022-09-12T04:22:41.012Z,81.60
2022-09-12T04:25:09.484Z,81.35
2022-09-12T04:27:36.332Z,82.17
2022-09-12T04:30:04.441Z,82.75
2022-09-12T04:32:31.552Z,82.19
2022-09-12T04:34:58.650Z,83.58
2022-09-12T04:37:25.528Z,83.44
2022-09-12T04:39:57.559Z,83.74
2022-09-12T04:42:24.765Z,83.54
2022-09-12T04:44:51.983Z,84.08
2022-09-12T04:47:18.919Z,83.99
2022-09-12T04:49:45.808Z,83.98
2022-09-12T04:52:12.640Z,84.06
2022-09-12T04:54:39.748Z,83.79
2022-09-12T04:57:06.523Z,84.14
2022-09-12T04:59:33.379Z,84.43
2022-09-12T05:02:00.303Z,85.66
2022-09-12T05:04:27.144Z,85.38
2022-09-12T05:06:54.001Z,85.33
2022-09-12T05:09:20.866Z,85.67
2022-09-12T05:12:03.852Z,85.06
2022-09-12T05:14:32.755Z,84.90
2022-09-12T05:17:01.365Z,84.90
2022-09-12T05:19:30.593Z,84.60
2022-09-12T05:21:57.530Z,84.29
2022-09-12T05:24:24.817Z,84.05
2022-09-12T05:26:51.827Z,84.00
2022-09-12T05:29:19.123Z,83.25
2022-09-12T05:31:46.517Z,83.44
2022-09-12T05:34:13.727Z,83.53
2022-09-12T05:36:40.629Z,83.22
2022-09-12T05:39:07.431Z,83.46
2022-09-12T05:41:36.730Z,85.31
2022-09-12T05:44:07.485Z,84.21
2022-09-12T05:46:39.995Z,84.43
2022-09-12T05:49:10.710Z,83.58
2022-09-12T05:51:42.214Z,82.33
2022-09-12T05:54:12.335Z,84.66
2022-09-12T05:56:42.236Z,82.72
2022-09-12T05:59:21.298Z,82.45
2022-09-12T06:01:48.628Z,81.41
2022-09-12T06:04:15.881Z,80.47
2022-09-12T06:06:48.735Z,80.20
2022-09-12T06:09:17.089Z,79.18
2022-09-12T06:11:45.745Z,78.92
2022-09-12T06:14:16.223Z,78.33
2022-09-12T06:16:43.346Z,77.07
2022-09-12T06:19:28.254Z,75.73
2022-09-12T06:21:55.282Z,73.07
2022-09-12T06:24:22.479Z,70.19
2022-09-12T06:26:51.864Z,67.23
2022-09-12T06:29:19.369Z,62.40
2022-09-12T06:31:46.172Z,59.18
2022-09-12T06:34:15.514Z,56.29
2022-09-12T06:36:47.943Z,54.84
2022-09-12T06:39:22.732Z,53.53
2022-09-12T06:41:51.927Z,54.07
2022-09-12T06:44:22.435Z,56.59
2022-09-12T06:46:49.983Z,57.92
2022-09-12T06:49:17.740Z,59.10
2022-09-12T06:51:44.922Z,60.34
2022-09-12T06:54:16.734Z,61.23
2022-09-12T06:56:44.164Z,61.56
2022-09-12T06:59:11.038Z,61.42
2022-09-12T07:01:38.395Z,60.09
2022-09-12T07:04:05.845Z,58.38
2022-09-12T07:06:38.811Z,57.64
2022-09-12T07:09:08.798Z,58.17
2022-09-12T07:11:38.802Z,58.09
2022-09-12T07:14:07.693Z,58.14
2022-09-12T07:16:38.118Z,57.46
2022-09-12T07:19:07.484Z,57.63
2022-09-12T07:21:39.525Z,57.44
2022-09-12T07:24:09.397Z,58.92
2022-09-12T07:26:36.688Z,60.62
2022-09-12T07:29:25.549Z,61.44
2022-09-12T07:31:50.419Z,61.09
2022-09-12T07:34:18.594Z,61.73
2022-09-12T07:36:45.433Z,60.53
2022-09-12T07:39:12.331Z,63.05
2022-09-12T07:41:39.351Z,61.14
2022-09-12T07:44:07.149Z,61.41
2022-09-12T07:46:35.293Z,59.53
2022-09-12T07:49:03.025Z,57.06
2022-09-12T07:51:31.189Z,53.14
2022-09-12T07:53:58.674Z,49.77
2022-09-12T07:56:30.546Z,47.17
2022-09-12T07:58:58.787Z,45.63
2022-09-12T08:01:26.281Z,42.46
2022-09-12T08:03:58.474Z,41.23
2022-09-12T08:06:27.872Z,39.62
2022-09-12T08:08:57.451Z,38.02
2022-09-12T08:11:25.870Z,36.59
2022-09-12T08:13:56.152Z,35.49
2022-09-12T08:16:27.178Z,33.26
2022-09-12T08:18:54.177Z,32.21
2022-09-12T08:21:27.161Z,32.26
2022-09-12T08:23:57.307Z,31.19
2022-09-12T08:26:24.799Z,30.48
2022-09-12T08:28:51.955Z,29.23
2022-09-12T08:31:21.356Z,27.91
2022-09-12T08:33:48.494Z,27.19
2022-09-12T08:36:21.193Z,25.75
2022-09-12T08:38:51.695Z,24.78
2022-09-12T08:41:19.285Z,24.29
2022-09-12T08:44:14.738Z,23.03
2022-09-12T08:47:00.808Z,22.26
2022-09-12T08:49:51.519Z,20.48
2022-09-12T08:52:38.375Z,20.01
2022-09-12T08:55:11.710Z,18.41
2022-09-12T08:57:39.544Z,17.55
2022-09-12T09:00:13.171Z,16.13
2022-09-12T09:03:08.484Z,15.71
2022-09-12T09:05:51.409Z,16.23
2022-09-12T09:08:40.052Z,15.98
2022-09-12T09:11:35.256Z,15.71
2022-09-12T09:14:48.889Z,15.59
2022-09-12T09:17:31.114Z,16.32
2022-09-12T09:20:27.804Z,16.05
2022-09-12T09:23:22.371Z,15.69
2022-09-12T09:26:04.090Z,16.66
2022-09-12T09:28:41.782Z,16.64
2022-09-12T09:31:17.283Z,17.03
2022-09-12T09:33:46.639Z,17.63
2022-09-12T09:36:38.917Z,18.79
2022-09-12T09:39:30.074Z,18.67
2022-09-12T09:42:23.193Z,18.72
2022-09-12T09:44:53.153Z,18.31
2022-09-12T09:47:20.174Z,18.64
2022-09-12T09:49:47.577Z,19.14
2022-09-12T09:52:28.387Z,18.72
2022-09-12T09:55:01.683Z,18.99
2022-09-12T09:57:34.682Z,18.09
2022-09-12T10:00:27.292Z,17.70
2022-09-12T10:03:13.434Z,17.99
2022-09-12T10:05:58.874Z,17.99
2022-09-12T10:08:35.798Z,18.02
2022-09-12T10:11:30.965Z,18.92
2022-09-12T10:14:01.214Z,18.79
2022-09-12T10:16:49.200Z,18.97
2022-09-12T10:19:33.926Z,18.96
2022-09-12T10:22:02.199Z,18.50
2022-09-12T10:24:39.541Z,19.43
2022-09-12T10:27:14.325Z,20.18
2022-09-12T10:30:03.915Z,21.93
2022-09-12T10:32:38.830Z,23.90
2022-09-12T10:35:30.918Z,26.46
2022-09-12T10:38:05.266Z,28.18
2022-09-12T10:40:40.955Z,30.08
2022-09-12T10:43:29.568Z,32.66
2022-09-12T10:46:21.514Z,33.78
2022-09-12T10:48:51.484Z,34.99
2022-09-12T10:51:36.421Z,36.40
2022-09-12T10:54:08.059Z,37.61
2022-09-12T10:57:11.949Z,37.79
2022-09-12T11:00:17.943Z,39.36
2022-09-12T11:03:16.198Z,39.77
2022-09-12T11:05:52.878Z,40.03
2022-09-12T11:09:02.563Z,41.29
2022-09-12T11:11:37.160Z,41.42
2022-09-12T11:14:15.687Z,41.30
2022-09-12T11:17:09.708Z,42.30
2022-09-12T11:19:50.920Z,42.90
2022-09-12T11:22:42.617Z,42.73
2022-09-12T11:25:24.179Z,41.71
2022-09-12T11:28:16.706Z,41.63
2022-09-12T11:31:18.600Z,42.98
2022-09-12T11:33:56.652Z,43.71
2022-09-12T11:36:40.768Z,42.14
2022-09-12T11:39:17.431Z,44.02
2022-09-12T11:42:00.232Z,43.26
2022-09-12T11:44:40.164Z,42.73
2022-09-12T11:47:14.680Z,44.09
2022-09-12T11:49:50.185Z,43.06
2022-09-12T11:52:25.349Z,42.91
2022-09-12T11:55:08.809Z,43.11
2022-09-12T11:57:58.514Z,43.43
2022-09-12T12:00:35.981Z,44.26
2022-09-12T12:03:34.794Z,42.77
2022-09-12T12:06:19.123Z,45.08
2022-09-12T12:08:48.344Z,44.05
2022-09-12T12:11:38.324Z,43.56
2022-09-12T12:14:15.900Z,45.33
2022-09-12T12:16:43.470Z,44.04
2022-09-12T12:19:16.343Z,43.01
2022-09-12T12:21:51.293Z,41.05
2022-09-12T12:24:26.660Z,42.52
2022-09-12T12:26:53.398Z,43.62
2022-09-12T12:29:20.100Z,43.17
2022-09-12T12:31:59.128Z,42.88
2022-09-12T12:34:35.478Z,44.99
2022-09-12T12:37:20.926Z,43.08
2022-09-12T12:39:51.619Z,43.73
2022-09-12T12:42:36.077Z,43.72
2022-09-12T12:45:08.582Z,44.15
2022-09-12T12:47:38.367Z,44.47
2022-09-12T12:50:11.078Z,44.20
2022-09-12T12:52:53.971Z,44.49
2022-09-12T12:55:46.683Z,43.24
2022-09-12T12:58:39.530Z,43.14
2022-09-12T13:01:15.706Z,43.46
2022-09-12T13:03:59.681Z,44.46
2022-09-12T13:06:31.901Z,43.98
2022-09-12T13:09:27.355Z,44.49
2022-09-12T13:12:24.316Z,44.37
2022-09-12T13:14:58.280Z,43.71
2022-09-12T13:17:41.839Z,44.79
2022-09-12T13:20:28.708Z,44.70
2022-09-12T13:22:57.505Z,41.90
2022-09-12T13:25:35.615Z,42.00
2022-09-12T13:28:18.417Z,40.88
2022-09-12T13:30:56.344Z,41.68
2022-09-12T13:33:51.184Z,42.53
2022-09-12T13:36:45.341Z,41.78
2022-09-12T13:39:27.653Z,42.83
2022-09-12T13:42:21.779Z,43.97
2022-09-12T13:44:56.646Z,44.02
2022-09-12T13:47:36.079Z,45.03
2022-09-12T13:50:07.166Z,44.56
2022-09-12T13:52:38.712Z,43.66
2022-09-12T13:55:39.668Z,44.73
2022-09-12T13:58:20.784Z,44.54
2022-09-12T14:01:01.032Z,43.82
2022-09-12T14:03:52.435Z,43.00
2022-09-12T14:06:20.662Z,44.52
2022-09-12T14:08:48.285Z,41.69
2022-09-12T14:11:27.093Z,40.29
2022-09-12T14:13:56.207Z,36.66
2022-09-12T14:16:27.228Z,37.86
2022-09-12T14:18:54.189Z,40.09
2022-09-12T14:21:35.275Z,38.84
2022-09-12T14:24:05.579Z,38.17
2022-09-12T14:26:37.523Z,39.36
2022-09-12T14:29:08.724Z,38.85
2022-09-12T14:31:39.275Z,40.33
2022-09-12T14:34:18.873Z,39.13
2022-09-12T14:36:52.223Z,40.69
2022-09-12T14:39:41.400Z,41.45
2022-09-12T14:42:21.412Z,41.80
2022-09-12T14:45:05.973Z,42.36
2022-09-12T14:47:40.070Z,41.88
2022-09-12T14:50:26.334Z,42.31
2022-09-12T14:53:07.850Z,41.35
2022-09-12T14:55:43.280Z,42.14
2022-09-12T14:58:30.452Z,40.66
2022-09-12T15:01:22.835Z,40.55
2022-09-12T15:03:55.554Z,41.47
2022-09-12T15:06:32.276Z,40.73
2022-09-12T15:09:06.248Z,42.38
2022-09-12T15:11:33.764Z,42.31
2022-09-12T15:14:13.406Z,42.24
2022-09-12T15:16:40.245Z,41.28
2022-09-12T15:19:07.078Z,40.92
2022-09-12T15:21:33.952Z,40.69
2022-09-12T15:24:00.770Z,42.70
2022-09-12T15:26:31.530Z,41.82
2022-09-12T15:28:58.446Z,42.76
2022-09-12T15:31:31.503Z,42.52
2022-09-12T15:34:01.694Z,43.33
2022-09-12T15:36:29.157Z,42.67
2022-09-12T15:38:56.307Z,41.20
2022-09-12T15:41:37.070Z,40.91
2022-09-12T15:44:05.813Z,41.59
2022-09-12T15:46:32.643Z,42.73
2022-09-12T15:48:59.575Z,42.48
2022-09-12T15:51:26.498Z,42.70
2022-09-12T15:53:53.394Z,43.19
2022-09-12T15:56:22.848Z,42.36
2022-09-12T15:58:58.790Z,42.98
2022-09-12T16:01:28.581Z,43.11
2022-09-12T16:03:55.919Z,43.67
2022-09-12T16:06:23.400Z,44.09
2022-09-12T16:08:50.286Z,43.94
2022-09-12T16:11:21.245Z,44.31
2022-09-12T16:13:48.781Z,44.85
2022-09-12T16:16:15.790Z,44.64
2022-09-12T16:18:42.757Z,44.34
2022-09-12T16:21:14.223Z,43.84
2022-09-12T16:23:46.956Z,42.51
2022-09-12T16:26:14.971Z,42.72
2022-09-12T16:28:42.086Z,43.16
2022-09-12T16:31:12.546Z,44.46
2022-09-12T16:33:40.596Z,45.77
2022-09-12T16:36:12.933Z,44.94
2022-09-12T16:38:50.452Z,45.16
2022-09-12T16:41:20.551Z,45.85
2022-09-12T16:43:48.211Z,45.28
2022-09-12T16:46:19.012Z,45.35
2022-09-12T16:48:52.361Z,45.74
2022-09-12T16:51:23.812Z,46.48
2022-09-12T16:53:50.975Z,46.04
2022-09-12T16:56:18.593Z,45.91
2022-09-12T16:58:45.914Z,45.83
2022-09-12T17:01:33.469Z,45.59
2022-09-12T17:04:00.484Z,45.87
2022-09-12T17:06:28.134Z,46.15
2022-09-12T17:09:00.747Z,46.75
2022-09-12T17:11:38.035Z,47.22
2022-09-12T17:14:07.935Z,47.18
2022-09-12T17:16:38.266Z,46.98
2022-09-12T17:19:06.477Z,47.20
2022-09-12T17:21:34.182Z,47.50
2022-09-12T17:24:01.503Z,47.63
2022-09-12T17:26:28.348Z,48.19
2022-09-12T17:28:55.324Z,47.93
2022-09-12T17:33:51.457Z,48.23
2022-09-12T17:36:18.541Z,48.82
2022-09-12T17:38:46.378Z,49.34
2022-09-12T17:41:17.634Z,49.67
2022-09-12T17:43:46.746Z,49.90
2022-09-12T17:46:13.960Z,50.13
2022-09-12T17:48:41.624Z,50.59
2022-09-12T17:51:14.450Z,50.55
2022-09-12T17:53:42.576Z,51.01
2022-09-12T17:56:10.614Z,51.23
2022-09-12T17:58:37.966Z,51.60
2022-09-12T18:01:26.849Z,51.58
2022-09-12T18:03:55.634Z,51.94
2022-09-12T18:06:23.898Z,52.27
2022-09-12T18:08:51.038Z,53.39
2022-09-12T18:11:18.054Z,53.35
2022-09-12T18:13:45.097Z,54.28
2022-09-12T18:16:13.775Z,54.31
2022-09-12T18:18:40.902Z,54.54
2022-09-12T18:21:10.673Z,54.38
2022-09-12T18:23:37.601Z,55.40
2022-09-12T18:26:07.941Z,56.53
2022-09-12T18:28:37.781Z,56.44
2022-09-12T18:31:10.819Z,56.88
2022-09-12T18:33:37.962Z,55.11
2022-09-12T18:36:06.506Z,54.62
2022-09-12T18:38:33.428Z,55.51
2022-09-12T18:41:13.438Z,56.72
2022-09-12T18:43:40.385Z,57.89
2022-09-12T18:46:10.380Z,58.05
2022-09-12T18:48:37.345Z,58.10
2022-09-12T18:51:09.667Z,58.55
2022-09-12T18:53:37.429Z,58.73
2022-09-12T18:56:12.434Z,58.81
2022-09-12T18:58:42.603Z,58.92
2022-09-12T19:01:25.894Z,59.38
2022-09-12T19:03:54.848Z,59.83
2022-09-12T19:06:28.309Z,60.58
2022-09-12T19:08:56.950Z,61.26
2022-09-12T19:11:26.317Z,61.93
2022-09-12T19:13:54.855Z,62.01
2022-09-12T19:16:26.721Z,62.13
2022-09-12T19:18:56.193Z,62.56
2022-09-12T19:21:29.749Z,62.08
2022-09-12T19:24:01.245Z,62.58
2022-09-12T19:26:28.753Z,62.84
2022-09-12T19:28:56.539Z,63.08
2022-09-12T19:31:24.676Z,62.94
2022-09-12T19:33:54.699Z,63.29
2022-09-12T19:36:43.924Z,63.14
2022-09-12T19:39:09.732Z,62.57
2022-09-12T19:41:36.873Z,62.45
2022-09-12T19:44:05.166Z,60.53
2022-09-12T19:46:32.539Z,58.81
2022-09-12T19:48:59.491Z,58.19
2022-09-12T19:51:26.509Z,57.54
2022-09-12T19:53:53.583Z,57.57
2022-09-12T19:56:20.719Z,57.00
2022-09-12T19:58:55.037Z,57.12
2022-09-12T20:01:28.331Z,58.32
2022-09-12T20:03:59.300Z,59.86
2022-09-12T20:06:27.430Z,60.77
2022-09-12T20:08:55.819Z,61.92
2022-09-12T20:11:25.447Z,63.12
2022-09-12T20:13:52.881Z,63.92
2022-09-12T20:16:29.346Z,64.53
2022-09-12T20:19:00.586Z,64.30
2022-09-12T20:21:31.698Z,64.86
2022-09-12T20:24:12.216Z,65.41
2022-09-12T20:26:40.219Z,66.01
2022-09-12T20:29:08.373Z,65.86
2022-09-12T20:31:37.612Z,66.37
2022-09-12T20:34:06.027Z,66.84
2022-09-12T20:36:32.891Z,66.83
2022-09-12T20:39:02.343Z,66.55
2022-09-12T20:41:32.385Z,67.49
2022-09-12T20:43:59.874Z,68.29
2022-09-12T20:46:28.555Z,68.50
2022-09-12T20:48:56.066Z,68.43
2022-09-12T20:51:26.416Z,68.40
2022-09-12T20:53:54.792Z,68.94
2022-09-12T20:56:22.902Z,69.44
2022-09-12T20:58:50.412Z,70.41
2022-09-12T21:01:17.412Z,70.53
2022-09-12T21:03:45.679Z,70.61
2022-09-12T21:06:14.682Z,70.61
2022-09-12T21:08:41.558Z,71.11
2022-09-12T21:11:09.139Z,71.75
2022-09-12T21:13:36.963Z,72.05
2022-09-12T21:16:04.846Z,72.14
2022-09-12T21:18:33.569Z,72.28
2022-09-12T21:21:00.456Z,72.14
2022-09-12T21:23:28.144Z,72.11
2022-09-12T21:25:55.171Z,72.80
2022-09-12T21:28:22.421Z,72.99
2022-09-12T21:30:49.974Z,73.17
2022-09-12T21:33:18.307Z,73.12
2022-09-12T21:35:47.197Z,73.07
2022-09-12T21:38:18.782Z,73.26
2022-09-12T21:40:47.552Z,73.68
2022-09-12T21:43:14.883Z,73.73
2022-09-12T21:45:42.092Z,73.87
2022-09-12T21:48:09.389Z,73.88
2022-09-12T21:50:36.281Z,73.87
2022-09-12T21:53:03.287Z,74.41
2022-09-12T21:55:30.290Z,74.27
2022-09-12T21:57:57.505Z,74.35
2022-09-12T22:00:24.487Z,74.35
2022-09-12T22:02:51.389Z,73.99
2022-09-12T22:05:24.557Z,74.16
2022-09-12T22:07:52.484Z,74.64
2022-09-12T22:10:19.404Z,74.55
2022-09-12T22:12:46.650Z,74.57
2022-09-12T22:15:38.797Z,75.09
2022-09-12T22:18:01.387Z,75.29
2022-09-12T22:20:28.521Z,75.65
2022-09-12T22:23:13.956Z,75.38
2022-09-12T22:25:41.000Z,75.70
2022-09-12T22:28:07.905Z,75.53
2022-09-12T22:30:35.499Z,75.71
2022-09-12T22:33:02.340Z,75.56
2022-09-12T22:35:29.242Z,75.03
2022-09-12T22:37:56.134Z,75.56
2022-09-12T22:40:23.052Z,75.52
2022-09-12T22:42:52.743Z,75.76
2022-09-12T22:45:19.878Z,75.52
2022-09-12T22:47:47.198Z,75.46
2022-09-12T22:50:14.446Z,75.38
2022-09-12T22:52:41.595Z,75.46
2022-09-12T22:55:08.832Z,76.41
2022-09-12T22:57:35.640Z,76.45
2022-09-12T23:00:10.601Z,76.26
2022-09-12T23:02:38.069Z,77.03
2022-09-12T23:05:06.102Z,77.53
2022-09-12T23:07:33.440Z,77.38
2022-09-12T23:10:00.523Z,77.62
2022-09-12T23:12:27.343Z,77.48
2022-09-12T23:14:54.214Z,77.66
2022-09-12T23:17:21.024Z,77.65
2022-09-12T23:19:56.974Z,77.89
2022-09-12T23:22:23.776Z,78.31
2022-09-12T23:24:50.645Z,78.37
2022-09-12T23:27:17.481Z,78.58
2022-09-12T23:29:44.319Z,79.13
2022-09-12T23:32:11.092Z,79.14
2022-09-12T23:34:37.899Z,79.23
2022-09-12T23:37:04.793Z,78.83
2022-09-12T23:39:31.770Z,78.83
2022-09-12T23:41:59.636Z,79.12
2022-09-12T23:44:26.476Z,78.80
2022-09-12T23:46:53.335Z,79.02
2022-09-12T23:49:20.216Z,80.09
2022-09-12T23:51:47.128Z,79.72
2022-09-12T23:54:14.061Z,79.78
2022-09-12T23:56:40.914Z,79.74
2022-09-12T23:59:07.814Z,80.33
